createdAt,value
2019-04-27T00:02:26.696Z,2.12
2019-04-27T00:05:03.275Z,3.30
2019-04-27T00:07:33.676Z,2.25
2019-04-27T00:10:03.474Z,2.70
2019-04-27T00:12:32.938Z,2.92
2019-04-27T00:14:59.876Z,2.80
2019-04-27T00:17:45.037Z,3.05
2019-04-27T00:20:16.040Z,2.98
2019-04-27T00:22:44.920Z,3.00
2019-04-27T00:25:13.106Z,3.22
2019-04-27T00:27:40.539Z,2.52
2019-04-27T00:30:07.783Z,3.27
2019-04-27T00:32:35.004Z,3.42
2019-04-27T00:35:03.717Z,2.42
2019-04-27T00:37:38.601Z,3.15
2019-04-27T00:40:08.625Z,3.00
2019-04-27T00:42:35.862Z,3.00
2019-04-27T00:45:05.463Z,2.75
2019-04-27T00:47:34.906Z,2.80
2019-04-27T00:50:03.430Z,2.55
2019-04-27T00:52:30.807Z,3.42
2019-04-27T00:54:58.019Z,3.98
2019-04-27T00:57:36.062Z,3.17
2019-04-27T01:00:18.228Z,3.15
2019-04-27T01:02:53.631Z,4.20
2019-04-27T01:05:23.135Z,3.08
2019-04-27T01:07:50.586Z,2.33
2019-04-27T01:10:17.875Z,3.15
2019-04-27T01:12:45.350Z,3.60
2019-04-27T01:15:13.712Z,3.25
2019-04-27T01:17:41.269Z,3.58
2019-04-27T01:20:08.694Z,3.02
2019-04-27T01:22:36.044Z,2.75
2019-04-27T01:25:04.434Z,2.77
2019-04-27T01:27:45.523Z,3.45
2019-04-27T01:30:14.447Z,2.72
2019-04-27T01:32:41.660Z,2.60
2019-04-27T01:35:08.891Z,2.67
2019-04-27T01:37:36.108Z,2.35
2019-04-27T01:40:04.972Z,2.35
2019-04-27T01:42:32.193Z,2.77
2019-04-27T01:44:59.554Z,2.40
2019-04-27T01:47:26.900Z,2.55
2019-04-27T01:49:54.124Z,3.80
2019-04-27T01:52:21.339Z,2.67
2019-04-27T01:54:49.581Z,2.40
2019-04-27T01:57:16.955Z,2.80
2019-04-27T01:59:44.185Z,2.70
2019-04-27T02:02:15.975Z,2.52
2019-04-27T02:04:49.317Z,2.30
2019-04-27T02:07:16.668Z,2.58
2019-04-27T02:09:43.901Z,3.08
2019-04-27T02:12:11.126Z,2.58
2019-04-27T02:14:38.958Z,2.35
2019-04-27T02:17:06.415Z,1.95
2019-04-27T02:19:33.732Z,2.75
2019-04-27T02:22:01.013Z,2.20
2019-04-27T02:24:28.833Z,2.90
2019-04-27T02:26:56.320Z,2.25
2019-04-27T02:29:25.231Z,1.98
2019-04-27T02:32:10.757Z,2.83
2019-04-27T02:34:42.814Z,2.70
2019-04-27T02:37:10.349Z,2.17
2019-04-27T02:39:39.765Z,2.50
2019-04-27T02:42:06.680Z,2.15
2019-04-27T02:44:35.560Z,1.90
2019-04-27T02:47:02.782Z,2.55
2019-04-27T02:49:30.564Z,2.27
2019-04-27T02:52:02.532Z,2.52
2019-04-27T02:54:30.006Z,2.10
2019-04-27T02:56:59.403Z,2.27
2019-04-27T02:59:26.297Z,2.30
2019-04-27T03:02:00.554Z,3.00
2019-04-27T03:04:26.798Z,2.52
2019-04-27T03:06:54.025Z,2.42
2019-04-27T03:09:21.245Z,2.22
2019-04-27T03:11:49.973Z,2.35
2019-04-27T03:14:32.581Z,1.90
2019-04-27T03:17:11.501Z,2.30
2019-04-27T03:19:59.723Z,2.20
2019-04-27T03:22:49.488Z,2.08
2019-04-27T03:25:20.223Z,2.10
2019-04-27T03:27:51.596Z,1.75
2019-04-27T03:30:22.647Z,1.90
2019-04-27T03:32:54.846Z,1.90
2019-04-27T03:35:16.772Z,2.40
2019-04-27T03:37:43.988Z,2.20
2019-04-27T03:40:11.313Z,1.90
2019-04-27T03:42:40.485Z,2.80
2019-04-27T03:45:10.472Z,2.17
2019-04-27T03:47:37.017Z,1.52
2019-04-27T03:50:10.339Z,2.00
2019-04-27T03:52:44.988Z,2.10
2019-04-27T03:55:19.520Z,2.60
2019-04-27T03:57:50.081Z,1.80
2019-04-27T04:00:19.919Z,2.75
2019-04-27T04:02:50.051Z,2.52
2019-04-27T04:05:16.464Z,1.90
2019-04-27T04:07:43.764Z,2.72
2019-04-27T04:10:11.084Z,2.55
2019-04-27T04:12:55.698Z,2.33
2019-04-27T04:15:41.022Z,2.37
2019-04-27T04:18:09.738Z,2.95
2019-04-27T04:20:37.220Z,2.15
2019-04-27T04:23:04.445Z,2.90
2019-04-27T04:25:33.055Z,2.85
2019-04-27T04:28:00.913Z,2.50
2019-04-27T04:30:30.265Z,2.22
2019-04-27T04:32:59.662Z,2.22
2019-04-27T04:35:26.097Z,2.27
2019-04-27T04:37:53.543Z,2.33
2019-04-27T04:40:34.761Z,3.02
2019-04-27T04:43:03.679Z,2.10
2019-04-27T04:45:39.401Z,2.67
2019-04-27T04:48:20.597Z,2.65
2019-04-27T04:50:50.086Z,2.40
2019-04-27T04:53:16.844Z,2.45
2019-04-27T04:55:44.049Z,2.25
2019-04-27T04:58:11.271Z,2.70
2019-04-27T05:00:40.097Z,2.30
2019-04-27T05:03:09.189Z,2.05
2019-04-27T05:05:36.408Z,2.40
2019-04-27T05:08:03.631Z,1.95
2019-04-27T05:10:31.247Z,2.10
2019-04-27T05:12:59.091Z,2.72
2019-04-27T05:15:26.499Z,2.25
2019-04-27T05:17:53.725Z,2.33
2019-04-27T05:20:26.304Z,2.05
2019-04-27T05:22:51.526Z,2.02
2019-04-27T05:25:18.753Z,1.50
2019-04-27T05:27:45.967Z,2.17
2019-04-27T05:30:13.183Z,1.85
2019-04-27T05:32:40.407Z,1.60
2019-04-27T05:35:08.791Z,1.98
2019-04-27T05:37:36.176Z,2.05
2019-04-27T05:40:04.156Z,1.40
2019-04-27T05:42:31.378Z,1.72
2019-04-27T05:45:06.832Z,1.92
2019-04-27T05:47:35.697Z,1.95
2019-04-27T05:50:05.019Z,1.98
2019-04-27T05:52:32.316Z,2.15
2019-04-27T05:54:59.545Z,3.87
2019-04-27T05:57:30.850Z,2.15
2019-04-27T05:59:55.786Z,2.17
2019-04-27T06:02:23.721Z,1.45
2019-04-27T06:04:50.971Z,1.52
2019-04-27T06:07:19.332Z,2.05
2019-04-27T06:09:46.696Z,1.95
2019-04-27T06:12:13.934Z,1.72
2019-04-27T06:14:41.192Z,1.90
2019-04-27T06:17:09.487Z,2.00
2019-04-27T06:19:36.840Z,1.65
2019-04-27T06:22:04.047Z,1.85
2019-04-27T06:24:31.279Z,2.05
2019-04-27T06:26:59.651Z,1.52
2019-04-27T06:29:29.098Z,1.90
2019-04-27T06:31:56.040Z,1.40
2019-04-27T06:34:23.263Z,1.47
2019-04-27T06:36:50.479Z,1.43
2019-04-27T06:39:20.270Z,1.53
2019-04-27T06:41:46.640Z,1.90
2019-04-27T06:44:13.869Z,1.37
2019-04-27T06:46:41.079Z,1.50
2019-04-27T06:49:09.059Z,1.57
2019-04-27T06:51:37.259Z,1.43
2019-04-27T06:54:04.483Z,1.30
2019-04-27T06:56:31.700Z,1.37
2019-04-27T06:58:59.695Z,1.47
2019-04-27T07:01:27.145Z,1.30
2019-04-27T07:03:54.358Z,1.00
2019-04-27T07:06:21.560Z,1.20
2019-04-27T07:08:49.836Z,1.50
2019-04-27T07:11:17.190Z,1.20
2019-04-27T07:13:44.471Z,1.30
2019-04-27T07:16:12.000Z,1.50
2019-04-27T07:18:39.742Z,1.20
2019-04-27T07:21:17.020Z,1.00
2019-04-27T07:23:38.905Z,0.90
2019-04-27T07:26:06.164Z,0.87
2019-04-27T07:28:33.403Z,1.07
2019-04-27T07:31:00.623Z,1.33
2019-04-27T07:33:29.528Z,0.60
2019-04-27T07:35:56.837Z,0.60
2019-04-27T07:38:24.567Z,0.60
2019-04-27T07:40:52.094Z,0.77
2019-04-27T07:43:21.178Z,0.50
2019-04-27T07:45:49.428Z,0.63
2019-04-27T07:48:16.749Z,0.70
2019-04-27T07:50:43.961Z,0.67
2019-04-27T07:53:11.175Z,0.93
2019-04-27T07:55:39.443Z,0.80
2019-04-27T07:58:08.791Z,1.03
2019-04-27T08:00:35.748Z,1.10
2019-04-27T08:03:02.959Z,0.90
2019-04-27T08:05:30.175Z,0.90
2019-04-27T08:07:57.396Z,0.80
2019-04-27T08:10:24.607Z,0.50
2019-04-27T08:12:51.821Z,1.10
2019-04-27T08:15:19.083Z,1.00
2019-04-27T08:17:46.330Z,0.80
2019-04-27T08:20:13.618Z,1.07
2019-04-27T08:22:40.830Z,1.00
2019-04-27T08:25:09.423Z,1.03
2019-04-27T08:27:39.386Z,0.83
2019-04-27T08:30:11.601Z,1.03
2019-04-27T08:32:43.342Z,1.73
2019-04-27T08:35:10.947Z,0.70
2019-04-27T08:37:38.654Z,1.10
2019-04-27T08:40:06.543Z,0.50
2019-04-27T08:42:33.755Z,1.40
2019-04-27T08:45:01.002Z,0.97
2019-04-27T08:47:29.358Z,0.90
2019-04-27T08:49:56.679Z,0.80
2019-04-27T08:52:23.905Z,1.10
2019-04-27T08:54:51.163Z,0.90
2019-04-27T08:57:18.790Z,1.30
2019-04-27T08:59:46.233Z,0.77
2019-04-27T09:02:13.444Z,1.00
2019-04-27T09:04:40.651Z,0.83
2019-04-27T09:07:25.849Z,1.87
2019-04-27T09:10:09.735Z,1.07
2019-04-27T09:12:44.044Z,1.27
2019-04-27T09:15:16.239Z,0.70
2019-04-27T09:17:56.763Z,0.77
2019-04-27T09:20:28.753Z,0.90
2019-04-27T09:22:56.061Z,1.00
2019-04-27T09:25:23.333Z,0.80
2019-04-27T09:27:50.532Z,0.90
2019-04-27T09:30:19.129Z,0.63
2019-04-27T09:32:46.511Z,0.70
2019-04-27T09:35:13.902Z,0.80
2019-04-27T09:37:41.113Z,0.87
2019-04-27T09:40:08.400Z,0.60
2019-04-27T09:42:38.159Z,0.90
2019-04-27T09:45:06.654Z,0.57
2019-04-27T09:47:33.927Z,0.87
2019-04-27T09:50:01.150Z,0.80
2019-04-27T09:52:28.755Z,0.60
2019-04-27T09:54:56.071Z,0.63
2019-04-27T09:57:23.273Z,0.50
2019-04-27T09:59:50.488Z,0.50
2019-04-27T10:02:17.801Z,0.50
2019-04-27T10:04:46.204Z,0.50
2019-04-27T10:07:13.616Z,0.50
2019-04-27T10:09:40.836Z,0.60
2019-04-27T10:12:08.051Z,0.90
2019-04-27T10:14:35.331Z,0.93
2019-04-27T10:17:02.555Z,1.20
2019-04-27T10:19:32.849Z,1.13
2019-04-27T10:21:59.033Z,0.70
2019-04-27T10:24:26.509Z,1.33
2019-04-27T10:26:53.715Z,0.77
2019-04-27T10:29:20.963Z,0.97
2019-04-27T10:31:48.362Z,0.70
2019-04-27T10:34:15.670Z,0.70
2019-04-27T10:36:42.919Z,0.70
2019-04-27T10:39:13.106Z,0.50
2019-04-27T10:41:39.623Z,0.60
2019-04-27T10:44:07.666Z,0.97
2019-04-27T10:46:35.036Z,0.50
2019-04-27T10:49:03.608Z,0.50
2019-04-27T10:51:30.831Z,0.50
2019-04-27T10:53:58.044Z,0.50
2019-04-27T10:56:25.549Z,0.60
2019-04-27T10:58:55.814Z,0.63
2019-04-27T11:01:23.111Z,0.63
2019-04-27T11:03:55.485Z,0.70
2019-04-27T11:06:37.455Z,0.80
2019-04-27T11:09:06.216Z,1.03
2019-04-27T11:11:33.419Z,0.77
2019-04-27T11:14:01.074Z,0.83
2019-04-27T11:16:28.537Z,0.80
2019-04-27T11:18:56.474Z,1.50
2019-04-27T11:21:26.188Z,1.30
2019-04-27T11:23:53.603Z,1.07
2019-04-27T11:26:20.831Z,0.93
2019-04-27T11:28:48.051Z,1.20
2019-04-27T11:31:17.041Z,1.40
2019-04-27T11:33:44.234Z,1.30
2019-04-27T11:36:18.969Z,1.57
2019-04-27T11:38:48.231Z,1.27
2019-04-27T11:41:16.222Z,1.40
2019-04-27T11:43:43.588Z,1.17
2019-04-27T11:46:10.800Z,1.00
2019-04-27T11:48:38.020Z,0.93
2019-04-27T11:51:06.900Z,1.03
2019-04-27T11:53:35.901Z,0.90
2019-04-27T11:56:03.367Z,0.67
2019-04-27T11:58:30.590Z,1.00
2019-04-27T12:00:57.794Z,1.13
2019-04-27T12:03:25.084Z,0.90
2019-04-27T12:05:52.381Z,1.40
2019-04-27T12:08:19.605Z,1.10
2019-04-27T12:10:48.326Z,1.10
2019-04-27T12:13:15.973Z,1.40
2019-04-27T12:15:43.315Z,0.60
2019-04-27T12:18:10.531Z,1.07
2019-04-27T12:20:37.915Z,0.80
2019-04-27T12:23:06.582Z,1.13
2019-04-27T12:25:37.089Z,1.07
2019-04-27T12:28:04.602Z,0.90
2019-04-27T12:30:33.458Z,0.90
2019-04-27T12:33:00.681Z,1.03
2019-04-27T12:35:27.891Z,0.50
2019-04-27T12:37:56.042Z,0.87
2019-04-27T12:40:23.519Z,0.80
2019-04-27T12:42:50.735Z,0.63
2019-04-27T12:45:18.265Z,0.53
2019-04-27T12:47:46.435Z,0.50
2019-04-27T12:50:14.208Z,0.50
2019-04-27T12:52:43.072Z,0.80
2019-04-27T12:55:17.852Z,0.60
2019-04-27T12:57:52.594Z,0.40
2019-04-27T13:00:30.564Z,0.60
2019-04-27T13:02:57.914Z,0.60
2019-04-27T13:05:25.842Z,0.80
2019-04-27T13:07:53.120Z,0.50
2019-04-27T13:10:20.333Z,0.60
2019-04-27T13:12:47.556Z,0.70
2019-04-27T13:15:15.142Z,0.50
2019-04-27T13:17:42.361Z,0.70
2019-04-27T13:20:09.576Z,0.70
2019-04-27T13:22:37.252Z,0.60
2019-04-27T13:25:07.863Z,0.80
2019-04-27T13:27:36.764Z,0.80
2019-04-27T13:30:07.397Z,0.73
2019-04-27T13:32:36.411Z,0.90
2019-04-27T13:35:05.746Z,0.60
2019-04-27T13:37:36.367Z,0.63
2019-04-27T13:40:09.241Z,0.80
2019-04-27T13:42:41.024Z,0.70
2019-04-27T13:45:09.971Z,0.90
2019-04-27T13:47:56.130Z,0.80
2019-04-27T13:50:35.428Z,0.60
2019-04-27T13:53:02.632Z,0.70
2019-04-27T13:55:29.854Z,0.60
2019-04-27T13:57:57.074Z,0.57
2019-04-27T14:00:24.295Z,0.50
2019-04-27T14:02:53.474Z,0.60
2019-04-27T14:05:20.863Z,0.60
2019-04-27T14:07:49.433Z,0.63
2019-04-27T14:10:17.972Z,0.60
2019-04-27T14:12:45.668Z,0.40
2019-04-27T14:15:12.959Z,0.50
2019-04-27T14:17:40.176Z,0.63
2019-04-27T14:20:07.891Z,0.67
2019-04-27T14:22:36.416Z,1.27
2019-04-27T14:25:04.711Z,0.50
2019-04-27T14:28:03.743Z,0.67
2019-04-27T14:30:31.136Z,0.70
2019-04-27T14:32:59.791Z,0.63
2019-04-27T14:35:28.309Z,0.50
2019-04-27T14:37:56.032Z,0.57
2019-04-27T14:40:23.902Z,0.63
2019-04-27T14:43:16.243Z,0.83
2019-04-27T14:45:43.928Z,0.70
2019-04-27T14:48:12.812Z,0.60
2019-04-27T14:50:40.521Z,0.50
2019-04-27T14:53:08.801Z,0.60
2019-04-27T14:55:36.285Z,0.60
2019-04-27T14:58:19.108Z,1.02
2019-04-27T15:00:46.664Z,0.65
2019-04-27T15:03:14.130Z,0.65
2019-04-27T15:05:41.495Z,1.05
2019-04-27T15:08:09.907Z,1.00
2019-04-27T15:10:54.921Z,0.82
2019-04-27T15:13:22.283Z,0.82
2019-04-27T15:15:49.860Z,1.00
2019-04-27T15:18:17.332Z,0.70
2019-04-27T15:20:46.624Z,1.25
2019-04-27T15:23:14.253Z,1.25
2019-04-27T15:25:47.549Z,1.17
2019-04-27T15:28:19.203Z,1.25
2019-04-27T15:30:54.066Z,1.00
2019-04-27T15:33:39.513Z,0.72
2019-04-27T15:36:10.231Z,0.80
2019-04-27T15:38:54.009Z,1.12
2019-04-27T15:41:39.470Z,1.65
2019-04-27T15:44:09.297Z,0.78
2019-04-27T15:46:36.221Z,0.90
2019-04-27T15:49:09.637Z,0.40
2019-04-27T15:51:32.916Z,0.50
2019-04-27T15:54:01.911Z,0.50
2019-04-27T15:56:30.522Z,0.40
2019-04-27T15:58:59.989Z,0.50
2019-04-27T16:01:31.223Z,1.10
2019-04-27T16:03:55.744Z,0.50
2019-04-27T16:06:22.994Z,0.70
2019-04-27T16:08:50.221Z,0.57
2019-04-27T16:11:19.677Z,0.60
2019-04-27T16:13:46.415Z,0.40
2019-04-27T16:16:13.651Z,0.82
2019-04-27T16:18:41.137Z,0.40
2019-04-27T16:21:10.759Z,0.57
2019-04-27T16:23:40.318Z,0.70
2019-04-27T16:26:11.320Z,0.50
2019-04-27T16:28:35.244Z,0.55
2019-04-27T16:31:02.459Z,0.70
2019-04-27T16:33:30.093Z,0.50
2019-04-27T16:36:06.250Z,0.40
2019-04-27T16:38:34.802Z,1.12
2019-04-27T16:41:03.520Z,0.55
2019-04-27T16:43:32.942Z,1.02
2019-04-27T16:46:04.287Z,1.00
2019-04-27T16:48:34.393Z,0.70
2019-04-27T16:50:59.243Z,0.80
2019-04-27T16:53:30.082Z,0.78
2019-04-27T16:56:01.673Z,0.60
2019-04-27T16:58:26.284Z,1.20
2019-04-27T17:00:53.495Z,0.60
2019-04-27T17:03:20.759Z,0.65
2019-04-27T17:05:48.541Z,0.80
2019-04-27T17:08:22.328Z,0.80
2019-04-27T17:10:44.860Z,0.70
2019-04-27T17:13:14.671Z,0.90
2019-04-27T17:15:59.886Z,0.95
2019-04-27T17:18:30.932Z,1.40
2019-04-27T17:21:01.021Z,0.87
2019-04-27T17:23:29.179Z,0.80
2019-04-27T17:26:02.286Z,0.93
2019-04-27T17:28:28.403Z,0.80
2019-04-27T17:30:56.107Z,1.57
2019-04-27T17:33:28.690Z,1.17
2019-04-27T17:35:57.611Z,1.33
2019-04-27T17:38:25.391Z,0.83
2019-04-27T17:40:52.683Z,0.90
2019-04-27T17:43:19.917Z,1.37
2019-04-27T17:45:48.626Z,0.87
2019-04-27T17:48:16.015Z,1.25
2019-04-27T17:50:43.253Z,1.52
2019-04-27T17:53:10.484Z,1.55
2019-04-27T17:55:37.711Z,1.62
2019-04-27T17:58:06.431Z,2.37
2019-04-27T18:00:42.923Z,1.12
2019-04-27T18:03:05.031Z,1.20
2019-04-27T18:05:32.243Z,1.15
2019-04-27T18:07:59.471Z,0.90
2019-04-27T18:10:28.169Z,1.00
2019-04-27T18:12:55.489Z,1.05
2019-04-27T18:15:22.717Z,1.00
2019-04-27T18:17:52.137Z,0.90
2019-04-27T18:20:24.044Z,2.30
2019-04-27T18:22:55.836Z,2.33
2019-04-27T18:25:23.104Z,1.60
2019-04-27T18:27:54.632Z,1.90
2019-04-27T18:30:23.914Z,1.52
2019-04-27T18:32:51.192Z,1.30
2019-04-27T18:35:20.038Z,1.22
2019-04-27T18:37:48.064Z,1.25
2019-04-27T18:40:15.367Z,1.17
2019-04-27T18:42:42.589Z,0.98
2019-04-27T18:45:09.908Z,0.90
2019-04-27T18:47:40.459Z,1.02
2019-04-27T18:50:14.430Z,0.90
2019-04-27T18:52:47.430Z,1.20
2019-04-27T18:55:16.607Z,1.00
2019-04-27T18:57:41.256Z,1.57
2019-04-27T19:00:10.800Z,1.57
2019-04-27T19:02:39.197Z,0.93
2019-04-27T19:05:06.532Z,1.22
2019-04-27T19:07:33.740Z,2.40
2019-04-27T19:10:00.982Z,1.65
2019-04-27T19:12:28.733Z,1.65
2019-04-27T19:14:56.109Z,1.12
2019-04-27T19:17:23.328Z,1.20
2019-04-27T19:19:50.559Z,0.90
2019-04-27T19:22:17.851Z,1.77
2019-04-27T19:24:45.076Z,1.20
2019-04-27T19:27:19.071Z,1.40
2019-04-27T19:29:53.417Z,1.55
2019-04-27T19:32:20.627Z,1.35
2019-04-27T19:34:48.051Z,1.37
2019-04-27T19:37:15.353Z,1.10
2019-04-27T19:39:42.584Z,1.02
2019-04-27T19:42:09.812Z,0.75
2019-04-27T19:44:38.815Z,0.75
2019-04-27T19:47:06.059Z,1.00
2019-04-27T19:49:33.291Z,1.35
2019-04-27T19:52:00.512Z,1.20
2019-04-27T19:54:28.266Z,0.90
2019-04-27T19:56:56.679Z,1.02
2019-04-27T19:59:25.553Z,1.20
2019-04-27T20:01:54.412Z,1.10
2019-04-27T20:04:23.259Z,1.00
2019-04-27T20:06:50.483Z,2.35
2019-04-27T20:09:28.347Z,0.93
2019-04-27T20:11:55.571Z,1.55
2019-04-27T20:14:22.792Z,1.05
2019-04-27T20:16:51.793Z,1.30
2019-04-27T20:19:19.007Z,1.57
2019-04-27T20:21:46.231Z,1.47
2019-04-27T20:24:13.507Z,1.00
2019-04-27T20:26:40.734Z,1.22
2019-04-27T20:29:07.943Z,0.85
2019-04-27T20:31:35.165Z,0.75
2019-04-27T20:34:02.388Z,1.32
2019-04-27T20:36:31.299Z,1.27
2019-04-27T20:38:58.711Z,1.10
2019-04-27T20:41:25.936Z,0.70
2019-04-27T20:43:53.156Z,0.98
2019-04-27T20:46:22.547Z,0.57
2019-04-27T20:48:51.152Z,1.20
2019-04-27T20:51:50.946Z,0.85
2019-04-27T20:54:19.492Z,0.62
2019-04-27T20:57:04.383Z,0.85
2019-04-27T20:59:31.809Z,0.60
2019-04-27T21:02:00.748Z,0.72
2019-04-27T21:04:38.613Z,0.82
2019-04-27T21:07:07.532Z,0.70
2019-04-27T21:09:34.888Z,0.90
2019-04-27T21:12:03.273Z,1.05
2019-04-27T21:14:31.676Z,0.68
2019-04-27T21:16:59.164Z,0.70
2019-04-27T21:19:26.494Z,1.10
2019-04-27T21:21:54.020Z,0.95
2019-04-27T21:24:22.795Z,0.93
2019-04-27T21:26:57.430Z,1.00
2019-04-27T21:29:24.792Z,1.62
2019-04-27T21:31:52.116Z,1.20
2019-04-27T21:34:19.461Z,0.95
2019-04-27T21:36:46.754Z,1.00
2019-04-27T21:39:14.020Z,0.93
2019-04-27T21:41:41.649Z,0.90
2019-04-27T21:44:08.855Z,1.55
2019-04-27T21:46:36.084Z,0.93
2019-04-27T21:49:03.305Z,0.70
2019-04-27T21:51:31.604Z,0.80
2019-04-27T21:54:00.462Z,1.00
2019-04-27T21:56:27.700Z,0.70
2019-04-27T21:58:54.923Z,1.35
2019-04-27T22:01:25.164Z,1.07
2019-04-27T22:03:52.699Z,0.95
2019-04-27T22:06:20.233Z,1.42
2019-04-27T22:08:47.466Z,1.27
2019-04-27T22:11:14.692Z,0.98
2019-04-27T22:13:41.916Z,0.98
2019-04-27T22:16:12.712Z,0.72
2019-04-27T22:18:38.091Z,1.45
2019-04-27T22:21:05.295Z,0.80
2019-04-27T22:23:34.169Z,0.80
2019-04-27T22:26:01.455Z,1.15
2019-04-27T22:28:43.624Z,1.00
2019-04-27T22:30:57.650Z,1.15
2019-04-27T22:33:24.892Z,0.90
2019-04-27T22:35:52.113Z,0.62
2019-04-27T22:38:19.350Z,1.07
2019-04-27T22:41:04.933Z,1.45
2019-04-27T22:43:45.751Z,0.80
2019-04-27T22:46:17.622Z,1.00
2019-04-27T22:48:44.840Z,1.15
2019-04-27T22:51:12.067Z,0.70
2019-04-27T22:53:41.023Z,0.98
2019-04-27T22:56:11.125Z,0.70
2019-04-27T22:58:42.456Z,1.30
2019-04-27T23:01:14.171Z,0.78
2019-04-27T23:03:43.034Z,1.00
2019-04-27T23:06:11.400Z,1.80
2019-04-27T23:08:38.821Z,0.80
2019-04-27T23:11:06.124Z,1.07
2019-04-27T23:13:33.347Z,0.88
2019-04-27T23:16:02.202Z,1.02
2019-04-27T23:18:31.085Z,0.93
2019-04-27T23:20:58.427Z,1.07
2019-04-27T23:23:25.652Z,0.88
2019-04-27T23:25:53.154Z,1.35
2019-04-27T23:28:20.874Z,0.70
2019-04-27T23:30:49.931Z,1.17
2019-04-27T23:33:17.246Z,1.70
2019-04-27T23:35:44.463Z,0.93
2019-04-27T23:38:17.266Z,0.90
2019-04-27T23:40:41.738Z,1.50
2019-04-27T23:43:09.302Z,1.50
2019-04-27T23:45:36.570Z,1.67
2019-04-27T23:48:03.801Z,0.70
2019-04-27T23:50:32.764Z,1.12
2019-04-27T23:53:02.007Z,1.10
2019-04-27T23:55:31.087Z,1.35
2019-04-27T23:57:58.302Z,1.35
